Time;durP1;ratioP1;P1;durP2;ratioP2;P2;SDS_P1;SDS_P2;PMS_P1;PMS_P2;Temp;Humidity;BMP_temperature;BMP_pressure;BME280_temperature;BME280_humidity;BME280_pressure;Samples;Min_cycle;Max_cycle;Signal;HPM_P1;HPM_P2
2023/10/13 00:00:29;;;;;;;6.73;4.53;;;;;;;15.79;100.00;96536.47;4949648;28;104395;-75
2023/10/13 00:03:00;;;;;;;7.50;4.00;;;;;;;15.95;100.00;96530.72;4949820;28;101980;-75
2023/10/13 00:05:28;;;;;;;7.70;4.10;;;;;;;15.79;100.00;96528.41;4949936;28;105380;-75
2023/10/13 00:07:56;;;;;;;7.43;4.00;;;;;;;15.92;100.00;96519.75;4952826;28;104189;-75
2023/10/13 00:10:24;;;;;;;8.67;4.60;;;;;;;15.67;100.00;96527.97;4949939;28;105573;-75
2023/10/13 00:12:51;;;;;;;9.03;4.60;;;;;;;15.85;100.00;96517.38;4949495;28;104038;-74
2023/10/13 00:15:21;;;;;;;7.13;4.33;;;;;;;15.95;100.00;96511.13;4949757;28;101903;-74
2023/10/13 00:17:48;;;;;;;6.03;3.90;;;;;;;15.81;100.00;96507.50;4949797;28;105186;-74
2023/10/13 00:20:38;;;;;;;5.53;4.07;;;;;;;15.70;100.00;96516.69;4949165;28;105760;-74
2023/10/13 00:23:06;;;;;;;7.77;4.30;;;;;;;15.82;100.00;96509.09;4949654;28;102162;-77
2023/10/13 00:25:43;;;;;;;5.20;4.17;;;;;;;15.82;100.00;96514.47;4949796;28;105111;-77
2023/10/13 00:28:10;;;;;;;6.97;4.27;;;;;;;15.91;100.00;96488.66;4948940;28;105207;-77
2023/10/13 00:30:39;;;;;;;7.67;3.90;;;;;;;15.84;100.00;96496.19;4952947;28;102024;-77
2023/10/13 00:33:06;;;;;;;8.97;3.90;;;;;;;15.55;100.00;96503.41;4947983;28;104089;-77
2023/10/13 00:35:37;;;;;;;8.97;4.73;;;;;;;15.46;100.00;96505.06;4949484;28;101885;-77
2023/10/13 00:38:12;;;;;;;5.93;3.67;;;;;;;15.63;100.00;96494.75;4949483;28;105002;-77
2023/10/13 00:40:44;;;;;;;7.30;3.87;;;;;;;15.54;100.00;96491.84;4950296;28;103087;-77
2023/10/13 00:43:32;;;;;;;6.77;3.60;;;;;;;15.44;100.00;96496.50;4951180;28;101990;-77
2023/10/13 00:46:13;;;;;;;8.30;3.90;;;;;;;15.57;100.00;96499.34;4949363;28;105440;-77
2023/10/13 00:48:43;;;;;;;5.97;3.60;;;;;;;15.59;100.00;96501.78;4948665;28;105124;-75
2023/10/13 00:51:18;;;;;;;7.23;3.97;;;;;;;15.54;100.00;96496.44;4949442;28;101931;-75
2023/10/13 00:53:47;;;;;;;4.93;3.77;;;;;;;15.58;100.00;96508.22;4952091;28;103772;-75
2023/10/13 00:56:19;;;;;;;5.83;3.60;;;;;;;15.66;100.00;96505.75;4949254;28;102245;-74
2023/10/13 00:58:46;;;;;;;5.87;3.63;;;;;;;15.72;100.00;96504.63;4949479;28;104802;-74
2023/10/13 01:01:22;;;;;;;6.20;4.13;;;;;;;15.69;100.00;96501.69;4948042;28;105610;-74
2023/10/13 01:03:50;;;;;;;5.20;3.87;;;;;;;15.38;100.00;96511.00;4949175;28;101999;-74
2023/10/13 01:06:19;;;;;;;5.70;3.80;;;;;;;15.52;100.00;96503.94;4949235;28;105674;-74
2023/10/13 01:08:50;;;;;;;6.60;3.80;;;;;;;15.46;100.00;96494.34;4948395;28;105337;-74
2023/10/13 01:11:19;;;;;;;7.30;4.50;;;;;;;15.38;100.00;96508.34;4949172;28;101876;-74
2023/10/13 01:13:47;;;;;;;5.93;4.17;;;;;;;15.49;100.00;96483.06;4948996;28;104885;-76
2023/10/13 01:16:16;;;;;;;7.93;4.10;;;;;;;15.59;100.00;96510.59;4951257;28;102019;-75
2023/10/13 01:18:47;;;;;;;12.00;4.70;;;;;;;15.67;100.00;96491.25;4949192;28;104208;-75
2023/10/13 01:21:19;;;;;;;7.03;3.87;;;;;;;15.78;100.00;96491.97;4948380;28;105530;-75
2023/10/13 01:23:48;;;;;;;6.90;3.73;;;;;;;15.89;100.00;96498.84;4948908;28;101887;-75
2023/10/13 01:26:21;;;;;;;6.60;3.70;;;;;;;16.02;100.00;96492.84;4948910;28;105210;-75
2023/10/13 01:28:50;;;;;;;9.37;3.80;;;;;;;15.93;100.00;96484.59;4948389;28;105363;-75
2023/10/13 01:31:27;;;;;;;4.60;3.53;;;;;;;16.02;100.00;96492.84;4948832;28;101927;-75
2023/10/13 01:33:54;;;;;;;5.93;3.40;;;;;;;16.03;100.00;96483.72;4950381;28;102867;-75
2023/10/13 01:36:22;;;;;;;5.67;3.37;;;;;;;16.08;100.00;96481.00;4951621;28;105813;-75
2023/10/13 01:38:50;;;;;;;4.57;3.60;;;;;;;16.04;100.00;96474.59;4948905;28;105034;-75
2023/10/13 01:41:17;;;;;;;6.63;3.90;;;;;;;16.01;100.00;96477.81;4948148;28;105705;-75
2023/10/13 01:43:43;;;;;;;6.83;3.53;;;;;;;15.98;100.00;96481.06;4950292;28;101951;-75
2023/10/13 01:46:13;;;;;;;4.37;3.70;;;;;;;15.98;100.00;96476.50;4952224;28;105188;-74
2023/10/13 01:48:40;;;;;;;6.57;3.50;;;;;;;15.90;100.00;96484.34;4951456;28;105411;-75
2023/10/13 01:51:09;;;;;;;5.83;3.23;;;;;;;15.88;100.00;96470.44;4952076;28;101987;-75
2023/10/13 01:53:37;;;;;;;6.03;3.40;;;;;;;15.73;100.00;96492.00;4952003;28;105175;-75
2023/10/13 01:56:10;;;;;;;6.23;3.83;;;;;;;15.67;100.00;96480.53;4951397;28;105480;-75
2023/10/13 01:58:37;;;;;;;5.03;3.50;;;;;;;15.63;100.00;96492.06;4955424;28;101967;-76
2023/10/13 02:01:07;;;;;;;5.70;3.50;;;;;;;15.59;100.00;96496.41;4953928;28;105525;-76
2023/10/13 02:03:33;;;;;;;5.23;3.40;;;;;;;15.62;100.00;96493.16;4954993;28;101910;-74
2023/10/13 02:06:04;;;;;;;5.97;3.70;;;;;;;15.57;100.00;96504.72;4954988;28;104942;-74
2023/10/13 02:08:30;;;;;;;4.93;3.30;;;;;;;15.61;100.00;96499.59;4954383;28;105348;-74
2023/10/13 02:11:01;;;;;;;6.60;3.47;;;;;;;15.58;100.00;96500.16;4955133;28;102014;-75
2023/10/13 02:13:29;;;;;;;6.40;3.80;;;;;;;15.28;100.00;96500.31;4954798;28;105435;-75
2023/10/13 02:16:02;;;;;;;7.10;3.53;;;;;;;15.32;100.00;96491.44;4954071;28;105189;-75
2023/10/13 02:18:34;;;;;;;3.80;3.23;;;;;;;15.22;100.00;96498.75;4954670;28;102150;-75
2023/10/13 02:21:04;;;;;;;6.57;3.90;;;;;;;15.21;100.00;96495.25;4957586;28;105131;-77
2023/10/13 02:23:31;;;;;;;5.00;3.00;;;;;;;15.17;100.00;96502.25;4954808;28;101922;-78
2023/10/13 02:26:00;;;;;;;8.07;3.53;;;;;;;15.24;100.00;96496.59;4954596;28;105604;-78
2023/10/13 02:28:33;;;;;;;7.80;3.60;;;;;;;15.01;100.00;96502.59;4953871;28;105532;-78
2023/10/13 02:31:03;;;;;;;5.07;3.50;;;;;;;14.84;100.00;96508.31;4954625;28;101879;-78
2023/10/13 02:33:30;;;;;;;3.63;3.27;;;;;;;14.80;100.00;96501.91;4954466;28;105614;-78
2023/10/13 02:35:57;;;;;;;6.70;4.20;;;;;;;14.77;100.00;96501.66;4954093;28;105690;-78
2023/10/13 02:38:33;;;;;;;6.13;3.80;;;;;;;14.72;100.00;96498.97;4954618;28;101887;-78
2023/10/13 02:41:05;;;;;;;5.37;3.53;;;;;;;14.49;100.00;96494.25;4954331;28;104931;-78
2023/10/13 02:43:35;;;;;;;6.07;3.47;;;;;;;14.44;100.00;96496.94;4957101;28;105665;-77
2023/10/13 02:46:01;;;;;;;6.03;3.50;;;;;;;14.25;100.00;96499.38;4954331;28;105486;-77
2023/10/13 02:48:31;;;;;;;4.83;3.73;;;;;;;14.15;100.00;96498.53;4953625;28;105430;-77
2023/10/13 02:51:01;;;;;;;5.20;4.00;;;;;;;14.06;100.00;96497.50;4954403;28;101866;-76
2023/10/13 02:53:29;;;;;;;6.00;3.50;;;;;;;13.78;100.00;96503.38;4953927;28;105179;-77
2023/10/13 02:56:05;;;;;;;7.70;3.53;;;;;;;13.63;100.00;96501.50;4952594;28;106070;-76
2023/10/13 02:58:38;;;;;;;5.03;3.57;;;;;;;13.59;100.00;96496.97;4954168;28;102369;-76
2023/10/13 03:01:16;;;;;;;6.03;4.10;;;;;;;13.58;100.00;96498.81;4953583;28;105494;-76
2023/10/13 03:03:49;;;;;;;5.07;4.23;;;;;;;13.39;100.00;96495.06;4953409;28;105144;-76
2023/10/13 03:06:17;;;;;;;5.77;3.87;;;;;;;13.41;100.00;96495.59;4957246;28;101954;-76
2023/10/13 03:08:45;;;;;;;6.03;3.80;;;;;;;13.43;100.00;96496.16;4953232;28;105127;-77
2023/10/13 03:11:11;;;;;;;9.17;4.60;;;;;;;13.38;100.00;96503.34;4953941;28;102032;-77
2023/10/13 03:13:43;;;;;;;4.83;3.87;;;;;;;13.46;100.00;96500.16;4953579;28;105244;-77
2023/10/13 03:16:19;;;;;;;5.40;3.70;;;;;;;13.38;100.00;96495.34;4953274;28;105724;-77
2023/10/13 03:18:53;;;;;;;5.10;3.70;;;;;;;13.39;100.00;96495.06;4953956;28;101942;-76
2023/10/13 03:21:29;;;;;;;8.53;4.17;;;;;;;13.47;100.00;96501.75;4953946;28;104985;-77
2023/10/13 03:24:06;;;;;;;5.63;4.00;;;;;;;13.45;100.00;96494.00;4953253;28;105700;-77
2023/10/13 03:26:43;;;;;;;7.53;4.07;;;;;;;13.33;100.00;96506.00;4956971;28;102181;-77
2023/10/13 03:29:14;;;;;;;5.57;3.93;;;;;;;13.19;100.00;96502.25;4953161;28;103982;-77
2023/10/13 03:31:45;;;;;;;5.03;3.87;;;;;;;13.29;100.00;96499.59;4953650;28;101894;-77
2023/10/13 03:34:12;;;;;;;6.00;4.23;;;;;;;13.29;100.00;96504.91;4953845;28;105606;-76
2023/10/13 03:36:58;;;;;;;6.20;3.60;;;;;;;13.22;100.00;96504.38;4953066;28;105256;-75
2023/10/13 03:39:29;;;;;;;6.40;3.53;;;;;;;13.26;100.00;96505.47;4953631;28;101888;-77
2023/10/13 03:41:59;;;;;;;7.07;4.17;;;;;;;13.23;100.00;96505.97;4953608;28;105514;-77
2023/10/13 03:44:30;;;;;;;5.57;4.00;;;;;;;13.11;100.00;96508.91;4953073;28;106190;-76
2023/10/13 03:47:08;;;;;;;6.00;4.37;;;;;;;13.11;100.00;96500.09;4953557;28;102130;-76
2023/10/13 03:49:37;;;;;;;6.67;4.40;;;;;;;13.15;100.00;96503.84;4973842;28;102683;-79
2023/10/13 03:52:05;;;;;;;7.70;4.50;;;;;;;13.03;100.00;96503.28;4953285;28;102067;-77
2023/10/13 03:54:34;;;;;;;5.03;4.03;;;;;;;12.99;100.00;96510.19;4954225;28;103802;-77
2023/10/13 03:57:10;;;;;;;5.83;3.80;;;;;;;12.90;100.00;96512.53;4953633;28;105936;-76
2023/10/13 03:59:38;;;;;;;5.10;3.77;;;;;;;12.98;100.00;96508.59;4954138;28;101802;-76
2023/10/13 04:02:12;;;;;;;6.67;3.70;;;;;;;13.06;100.00;96508.06;4953349;28;105402;-76
2023/10/13 04:04:48;;;;;;;6.90;4.30;;;;;;;13.09;100.00;96511.00;4953586;28;105410;-78
2023/10/13 04:15:42;;;;;;;5.00;3.47;;;;;;;13.03;100.00;96506.72;4953842;28;104748;-77
2023/10/13 04:18:33;;;;;;;6.30;4.27;;;;;;;13.05;100.00;96499.28;4953247;28;105885;-77
2023/10/13 04:21:18;;;;;;;6.77;4.33;;;;;;;12.94;100.00;96502.13;4953886;28;101842;-77
2023/10/13 04:26:36;;;;;;;6.73;4.17;;;;;;;12.92;100.00;96504.28;4951164;28;105768;-77
2023/10/13 04:29:10;;;;;;;7.77;4.60;;;;;;;12.93;100.00;96504.00;4952644;28;101939;-77
2023/10/13 04:32:00;;;;;;;5.33;4.00;;;;;;;12.88;100.00;96497.84;4952596;28;105258;-76
2023/10/13 04:34:37;;;;;;;5.87;4.37;;;;;;;12.66;100.00;96500.72;4952206;28;105132;-77
2023/10/13 04:37:23;;;;;;;8.00;4.00;;;;;;;12.74;100.00;96497.53;4956079;28;101871;-76
2023/10/13 04:39:56;;;;;;;6.90;4.27;;;;;;;12.83;100.00;96495.16;4952017;28;105227;-76
2023/10/13 04:42:39;;;;;;;5.20;3.77;;;;;;;12.83;100.00;96500.50;4952846;28;101915;-78
2023/10/13 04:45:27;;;;;;;7.10;4.53;;;;;;;12.85;100.00;96495.69;4952437;28;105242;-77
2023/10/13 04:48:14;;;;;;;6.03;4.07;;;;;;;12.84;100.00;96496.75;4951982;28;105595;-76
2023/10/13 04:50:46;;;;;;;6.17;3.80;;;;;;;12.68;100.00;96481.75;4952745;28;102195;-77
2023/10/13 04:53:27;;;;;;;4.53;3.67;;;;;;;12.50;100.00;96491.03;4952374;28;105297;-77
2023/10/13 04:56:07;;;;;;;7.13;4.17;;;;;;;12.54;100.00;96491.31;4951946;28;105280;-77
2023/10/13 04:59:17;;;;;;;6.27;3.90;;;;;;;12.45;100.00;96484.84;4952589;28;102094;-77
2023/10/13 05:04:38;;;;;;;5.53;3.93;;;;;;;12.77;100.00;96486.34;4952659;28;102124;-77
2023/10/13 05:48:41;;;;;;;6.90;4.10;;;;;;;12.17;100.00;96495.91;4956631;28;106021;-77
2023/10/13 06:29:53;;;;;;;7.73;5.30;;;;;;;13.20;100.00;96503.84;4953174;28;105411;-77
2023/10/13 06:32:25;;;;;;;7.53;4.73;;;;;;;13.31;100.00;96503.59;4953924;28;105400;-77
2023/10/13 06:34:57;;;;;;;7.83;5.90;;;;;;;13.18;100.00;96508.63;4954525;28;101878;-77
2023/10/13 06:37:25;;;;;;;8.60;5.50;;;;;;;13.23;100.00;96504.13;4957333;28;104203;-77
2023/10/13 06:39:56;;;;;;;8.70;5.60;;;;;;;13.38;100.00;96511.34;4954470;28;102006;-77
2023/10/13 06:42:26;;;;;;;7.93;5.50;;;;;;;13.36;100.00;96508.16;4954536;28;106005;-77
2023/10/13 06:44:55;;;;;;;8.80;5.30;;;;;;;13.59;100.00;96510.31;4953879;28;105078;-77
2023/10/13 06:47:22;;;;;;;10.30;5.40;;;;;;;13.82;100.00;96509.78;4954453;28;102030;-76
2023/10/13 06:49:51;;;;;;;9.80;4.93;;;;;;;14.02;100.00;96509.81;4954209;28;104528;-76
2023/10/13 06:52:18;;;;;;;6.70;4.80;;;;;;;14.10;100.00;96518.09;4953741;28;105294;-76
2023/10/13 06:54:46;;;;;;;8.10;4.97;;;;;;;14.23;100.00;96514.09;4954238;28;101927;-77
2023/10/13 06:57:15;;;;;;;6.87;4.77;;;;;;;14.40;100.00;96514.59;4954187;28;105585;-77
2023/10/13 06:59:42;;;;;;;6.53;4.47;;;;;;;14.57;100.00;96523.13;4956984;28;105327;-77
2023/10/13 07:02:20;;;;;;;10.43;4.50;;;;;;;14.78;100.00;96519.31;4971328;28;103359;-77
2023/10/13 07:04:47;;;;;;;6.87;4.43;;;;;;;15.00;100.00;96525.88;4953382;28;105447;-77
2023/10/13 07:07:15;;;;;;;6.10;3.60;;;;;;;15.22;100.00;96518.31;4954137;28;102096;-77
2023/10/13 07:09:49;;;;;;;10.63;4.27;;;;;;;15.38;100.00;96513.69;4971708;28;102736;-78
2023/10/13 07:12:22;;;;;;;18.03;5.53;;;;;;;15.99;100.00;96515.66;4953376;28;103889;-75
2023/10/13 07:14:53;;;;;;;10.47;4.70;;;;;;;16.34;100.00;96517.22;4954024;28;101946;-73
2023/10/13 07:17:24;;;;;;;8.10;3.50;;;;;;;16.62;100.00;96513.75;4953887;28;105237;-74
2023/10/13 07:19:56;;;;;;;7.33;3.90;;;;;;;16.74;100.00;96514.94;4953220;28;105370;-74
2023/10/13 07:22:25;;;;;;;4.50;3.50;;;;;;;17.22;100.00;96508.44;4957313;28;101931;-74
2023/10/13 07:24:52;;;;;;;5.10;3.50;;;;;;;17.21;100.00;96506.84;4953126;28;105771;-74
2023/10/13 07:27:24;;;;;;;7.07;3.27;;;;;;;17.18;100.00;96506.63;4953555;28;101899;-74
2023/10/13 07:30:06;;;;;;;6.57;3.13;;;;;;;17.24;100.00;96497.41;4953681;28;105321;-74
2023/10/13 07:32:35;;;;;;;5.33;3.00;;;;;;;17.46;100.00;96505.75;4953001;28;105091;-74
2023/10/13 07:35:06;;;;;;;6.03;3.43;;;;;;;17.80;100.00;96512.50;4969874;28;101930;-74
2023/10/13 07:37:33;;;;;;;7.60;3.40;;;;;;;17.84;100.00;96507.31;4953852;28;105655;-74
2023/10/13 07:40:00;;;;;;;5.53;3.27;;;;;;;18.21;100.00;96499.19;4953120;28;105628;-74
2023/10/13 07:42:31;;;;;;;4.40;2.90;;;;;;;18.21;100.00;96505.34;4953485;28;101903;-74
2023/10/13 07:44:59;;;;;;;4.10;3.07;;;;;;;17.91;100.00;96505.03;4956241;28;105597;-74
2023/10/13 07:47:28;;;;;;;8.27;3.10;;;;;;;18.20;100.00;96497.59;4953334;28;101885;-74
2023/10/13 07:49:56;;;;;;;6.60;3.37;;;;;;;18.53;100.00;96496.47;4970882;28;102624;-74
2023/10/13 07:52:36;;;;;;;4.53;3.00;;;;;;;18.73;100.00;96501.47;4952671;28;105770;-74
2023/10/13 07:55:20;;;;;;;4.37;2.90;;;;;;;18.76;100.00;96506.28;4971102;28;101881;-74
2023/10/13 07:57:56;;;;;;;6.73;3.33;;;;;;;18.76;100.00;96508.97;4953427;28;105005;-74
2023/10/13 08:00:27;;;;;;;3.90;3.07;;;;;;;18.92;100.00;96505.66;4952706;28;105671;-74
2023/10/13 08:03:07;;;;;;;3.50;2.90;;;;;;;19.01;100.00;96505.78;4952795;28;102028;-74
2023/10/13 08:05:55;;;;;;;4.53;2.90;;;;;;;19.10;100.00;96507.47;4956084;28;105148;-74
2023/10/13 08:08:25;;;;;;;3.87;2.70;;;;;;;19.31;100.00;96500.59;4953057;28;101814;-74
2023/10/13 08:10:55;;;;;;;3.37;2.60;;;;;;;19.23;100.00;96501.28;4953090;28;105058;-74
2023/10/13 08:13:23;;;;;;;8.77;2.90;;;;;;;19.27;100.00;96496.09;4952624;28;104440;-74
2023/10/13 08:15:52;;;;;;;5.00;3.00;;;;;;;19.35;100.00;96490.00;4953224;28;101943;-74
2023/10/13 08:18:29;;;;;;;5.47;2.43;;;;;;;19.56;100.00;96489.22;4953064;28;104972;-74
2023/10/13 08:21:03;;;;;;;3.10;2.50;;;;;;;19.87;100.00;96489.31;4952563;28;103611;-74
2023/10/13 08:29:49;;;;;;;4.10;2.80;;;;;;;20.00;100.00;96489.25;4955362;28;105572;-74
2023/10/13 08:32:13;;;;;;;3.87;2.80;;;;;;;20.03;100.00;96488.66;4952314;28;105238;-75
2023/10/13 08:34:59;;;;;;;8.00;3.00;;;;;;;20.03;100.00;96487.84;4952233;28;105651;-72
2023/10/13 08:37:33;;;;;;;5.07;2.50;;;;;;;20.29;100.00;96491.53;4952537;28;102018;-74
2023/10/13 08:42:52;;;;;;;6.27;2.80;;;;;;;20.60;96.42;96482.31;4951234;28;105764;-73
2023/10/13 08:45:53;;;;;;;3.00;2.30;;;;;;;20.37;94.72;96475.38;4952303;28;101891;-73
2023/10/13 08:48:14;;;;;;;6.50;2.37;;;;;;;20.64;100.00;96471.69;4952361;28;105539;-73
2023/10/13 08:50:52;;;;;;;3.17;2.73;;;;;;;20.94;100.00;96470.88;4951938;28;105958;-76
2023/10/13 08:53:31;;;;;;;4.67;2.40;;;;;;;20.75;100.00;96473.00;4955027;28;102204;-74
2023/10/13 08:56:08;;;;;;;6.63;2.67;;;;;;;20.41;89.46;96479.06;4951777;28;105648;-76
2023/10/13 09:01:39;;;;;;;5.90;2.60;;;;;;;20.43;87.31;96465.25;4948328;28;105606;-73
2023/10/13 09:04:22;;;;;;;4.00;2.67;;;;;;;21.09;85.83;96462.34;4948459;28;105358;-73
2023/10/13 09:09:42;;;;;;;7.23;2.70;;;;;;;21.18;90.46;96465.84;4945362;28;105544;-73
2023/10/13 09:12:11;;;;;;;6.97;2.60;;;;;;;21.80;91.69;96461.81;4949790;28;104475;-74
2023/10/13 09:14:42;;;;;;;5.20;2.47;;;;;;;22.08;90.07;96457.63;4949275;28;101952;-74
2023/10/13 09:17:11;;;;;;;5.87;2.47;;;;;;;21.76;72.11;96450.03;4953464;28;101912;-74
2023/10/13 09:19:49;;;;;;;7.83;2.60;;;;;;;21.97;70.75;96456.38;4949042;28;101989;-74
2023/10/13 09:22:35;;;;;;;7.37;3.00;;;;;;;22.16;75.00;96449.50;4949010;28;105293;-74
2023/10/13 09:25:05;;;;;;;5.93;2.93;;;;;;;22.60;77.33;96448.25;4948320;28;104554;-74
2023/10/13 09:27:37;;;;;;;5.77;2.63;;;;;;;22.25;66.35;96444.88;4948999;28;101891;-74
2023/10/13 09:30:09;;;;;;;4.27;2.80;;;;;;;21.99;66.71;96448.72;4948764;28;104203;-74
2023/10/13 09:32:45;;;;;;;13.40;3.20;;;;;;;22.17;65.95;96442.19;4948401;28;105364;-74
2023/10/13 09:35:18;;;;;;;7.23;3.23;;;;;;;22.59;68.62;96443.97;4948896;28;102406;-74
2023/10/13 09:37:47;;;;;;;6.60;2.93;;;;;;;22.66;66.33;96442.34;4948849;28;105575;-74
2023/10/13 09:40:33;;;;;;;6.20;2.90;;;;;;;22.66;63.86;96436.94;4951749;28;104982;-74
2023/10/13 09:43:05;;;;;;;8.00;3.00;;;;;;;22.81;64.49;96432.88;4948953;28;104180;-74
2023/10/13 09:45:36;;;;;;;5.83;2.77;;;;;;;23.13;64.03;96426.78;4948277;28;105219;-74
2023/10/13 09:48:06;;;;;;;6.27;2.70;;;;;;;23.03;62.03;96424.44;4948907;28;101964;-74
2023/10/13 09:50:37;;;;;;;5.60;2.83;;;;;;;23.14;62.10;96423.75;4948610;28;104195;-74
2023/10/13 09:53:10;;;;;;;7.53;3.10;;;;;;;23.47;67.63;96421.16;4948220;28;105253;-74
2023/10/13 09:55:44;;;;;;;5.97;2.70;;;;;;;23.43;61.28;96418.31;4948625;28;101849;-74
2023/10/13 09:58:14;;;;;;;4.40;2.60;;;;;;;23.33;59.88;96417.91;4948556;28;104831;-74
2023/10/13 10:00:46;;;;;;;9.13;2.90;;;;;;;23.06;61.24;96421.88;4948046;28;105043;-74
2023/10/13 10:03:30;;;;;;;5.20;2.50;;;;;;;23.29;59.59;96419.69;4951604;28;103591;-74
2023/10/13 10:06:03;;;;;;;6.23;2.90;;;;;;;23.43;57.80;96415.59;4950855;28;105957;-74
2023/10/13 10:08:34;;;;;;;4.30;2.23;;;;;;;23.87;60.14;96422.25;4951857;28;101909;-74
2023/10/13 10:11:34;;;;;;;3.70;2.30;;;;;;;23.48;58.17;96415.41;4951748;28;104806;-74
2023/10/13 10:14:12;;;;;;;3.57;2.10;;;;;;;24.06;59.74;96423.38;4950758;28;104646;-74
2023/10/13 10:16:49;;;;;;;4.47;2.37;;;;;;;24.12;55.99;96413.09;4951853;28;102325;-74
2023/10/13 10:19:15;;;;;;;8.20;2.53;;;;;;;23.82;58.27;96417.03;4951543;28;105653;-74
2023/10/13 10:21:43;;;;;;;5.47;2.73;;;;;;;23.79;55.33;96410.34;4951015;28;105167;-74
2023/10/13 10:24:30;;;;;;;4.27;2.70;;;;;;;24.14;56.05;96399.97;4955088;28;101937;-74
2023/10/13 10:26:58;;;;;;;7.27;2.60;;;;;;;23.59;53.51;96403.00;4950874;28;105338;-74
2023/10/13 10:29:25;;;;;;;3.90;2.60;;;;;;;23.63;53.49;96400.41;4951553;28;102106;-74
2023/10/13 10:31:52;;;;;;;5.53;2.67;;;;;;;24.09;54.00;96394.75;4951350;28;105221;-74
2023/10/13 10:34:19;;;;;;;9.27;3.20;;;;;;;24.45;53.58;96395.63;4950775;28;105012;-74
2023/10/13 10:36:47;;;;;;;5.30;2.60;;;;;;;24.51;50.40;96388.00;4951482;28;102267;-74
2023/10/13 10:39:15;;;;;;;6.43;2.97;;;;;;;24.83;51.75;96389.88;4951425;28;104832;-74
2023/10/13 10:41:51;;;;;;;5.37;2.70;;;;;;;24.79;49.49;96378.09;4950615;28;105069;-74
2023/10/13 10:44:33;;;;;;;5.07;2.50;;;;;;;25.11;49.80;96375.22;4951324;28;101841;-74
2023/10/13 10:47:10;;;;;;;5.70;2.70;;;;;;;25.49;46.80;96369.38;4953989;28;104403;-74
2023/10/13 10:49:40;;;;;;;2.83;2.23;;;;;;;25.02;45.57;96365.59;4951175;28;101983;-74
2023/10/13 10:52:18;;;;;;;5.07;2.73;;;;;;;25.09;47.45;96363.91;4951228;28;105742;-74
2023/10/13 10:54:51;;;;;;;5.83;2.67;;;;;;;25.52;48.29;96358.59;4950452;28;105085;-74
2023/10/13 10:57:18;;;;;;;6.60;2.57;;;;;;;25.45;48.80;96357.59;4951092;28;102154;-74
2023/10/13 10:59:58;;;;;;;5.07;2.47;;;;;;;25.60;45.27;96344.03;4951316;28;105482;-74
2023/10/13 11:02:31;;;;;;;5.80;2.80;;;;;;;25.63;44.79;96345.28;4933604;28;104261;-74
2023/10/13 11:04:59;;;;;;;3.77;2.57;;;;;;;24.97;46.40;96335.91;4952501;28;101781;-74
2023/10/13 11:07:27;;;;;;;5.40;2.70;;;;;;;25.03;48.04;96334.53;4951053;28;102800;-74
2023/10/13 11:10:06;;;;;;;5.17;2.80;;;;;;;25.54;48.06;96331.00;4953583;28;105547;-74
2023/10/13 11:12:34;;;;;;;5.20;2.50;;;;;;;26.22;49.58;96329.78;4950907;28;104972;-74
2023/10/13 11:15:05;;;;;;;7.07;2.30;;;;;;;26.44;45.21;96329.16;4950228;28;105942;-74
2023/10/13 11:17:41;;;;;;;4.23;2.67;;;;;;;26.52;47.49;96319.97;4950110;28;101894;-74
2023/10/13 11:20:25;;;;;;;5.43;2.80;;;;;;;26.81;47.10;96323.06;4950806;28;105165;-74
2023/10/13 11:22:53;;;;;;;3.43;2.10;;;;;;;27.17;42.36;96311.00;4950333;28;105003;-74
2023/10/13 11:25:29;;;;;;;6.10;2.73;;;;;;;27.13;47.86;96310.13;4950576;28;102028;-74
2023/10/13 11:27:58;;;;;;;6.50;2.60;;;;;;;27.25;48.43;96310.03;4950777;28;104900;-74
2023/10/13 11:30:40;;;;;;;4.30;2.20;;;;;;;27.11;45.69;96304.22;4950053;28;105230;-74
2023/10/13 11:33:09;;;;;;;5.30;2.50;;;;;;;27.47;44.76;96307.38;4954174;28;101933;-74
2023/10/13 11:38:26;;;;;;;6.80;2.20;;;;;;;27.44;43.53;96297.16;4950483;28;101837;-74
2023/10/13 11:41:08;;;;;;;8.05;2.40;;;;;;;27.84;43.00;96294.84;4950444;28;104897;-74
2023/10/13 11:43:44;;;;;;;3.87;2.63;;;;;;;27.67;44.20;96291.78;4949869;28;105055;-74
2023/10/13 11:46:14;;;;;;;8.05;2.22;;;;;;;27.77;40.95;96282.97;4950390;28;102308;-74
2023/10/13 11:48:42;;;;;;;4.40;2.08;;;;;;;27.97;42.76;96281.81;4950581;28;105497;-74
2023/10/13 11:51:17;;;;;;;5.65;2.38;;;;;;;28.00;44.37;96272.88;4950925;28;103082;-74
2023/10/13 11:53:44;;;;;;;5.97;2.65;;;;;;;28.05;42.29;96267.09;4950120;28;101832;-74
2023/10/13 11:56:11;;;;;;;3.95;2.72;;;;;;;28.20;43.12;96267.00;4953068;28;105292;-74
2023/10/13 11:58:39;;;;;;;4.90;2.35;;;;;;;28.46;44.68;96260.78;4950132;28;101881;-74
2023/10/13 12:01:20;;;;;;;5.15;2.22;;;;;;;28.72;41.75;96258.84;4952587;28;104109;-74
2023/10/13 12:06:46;;;;;;;5.63;2.20;;;;;;;28.53;39.12;96239.78;4953118;28;102078;-74
2023/10/13 12:09:32;;;;;;;5.68;2.40;;;;;;;28.94;40.81;96232.56;4970796;28;102904;-74
2023/10/13 12:12:01;;;;;;;5.28;2.55;;;;;;;29.24;41.82;96225.13;4952312;28;105257;-74
2023/10/13 12:14:29;;;;;;;4.53;2.22;;;;;;;29.43;41.01;96223.00;4970768;28;101805;-74
2023/10/13 12:17:03;;;;;;;3.28;2.28;;;;;;;29.38;40.00;96222.56;4952934;28;105724;-74
2023/10/13 12:19:31;;;;;;;3.35;1.83;;;;;;;29.41;40.18;96219.06;4955600;28;102167;-74
2023/10/13 12:22:04;;;;;;;4.60;2.33;;;;;;;29.30;41.04;96208.00;4952937;28;104823;-74
2023/10/13 12:24:40;;;;;;;2.60;2.00;;;;;;;29.71;39.55;96211.59;4952126;28;105478;-74
2023/10/13 12:27:18;;;;;;;2.72;1.85;;;;;;;29.91;36.27;96202.00;4952914;28;101956;-74
2023/10/13 12:29:47;;;;;;;3.88;2.05;;;;;;;29.83;38.55;96203.09;4952936;28;104854;-74
2023/10/13 12:32:14;;;;;;;3.88;2.05;;;;;;;30.19;37.31;96203.03;4951947;28;105075;-74
2023/10/13 12:35:00;;;;;;;4.50;1.95;;;;;;;30.41;37.09;96201.25;4952865;28;101900;-74
2023/10/13 12:37:50;;;;;;;5.63;2.17;;;;;;;30.16;35.77;96190.09;4952968;28;105160;-74
2023/10/13 12:54:16;;;;;;;2.05;1.70;;;;;;;31.01;34.97;96169.47;4969663;28;102688;-73
2023/10/13 12:56:43;;;;;;;4.80;1.90;;;;;;;30.78;34.28;96167.00;4969741;28;101765;-73
2023/10/13 12:59:13;;;;;;;2.92;1.65;;;;;;;31.25;34.83;96157.78;4951677;28;104087;-74
2023/10/13 13:01:42;;;;;;;7.20;2.30;;;;;;;31.47;34.22;96151.97;4951471;28;103527;-73
2023/10/13 13:04:16;;;;;;;5.40;1.80;;;;;;;31.19;35.42;96151.91;4955796;28;101969;-73
2023/10/13 13:06:45;;;;;;;2.75;1.70;;;;;;;31.28;34.97;96146.81;4951694;28;105766;-73
2023/10/13 13:09:12;;;;;;;5.40;2.00;;;;;;;31.44;37.91;96139.00;4952389;28;101846;-73
2023/10/13 13:11:39;;;;;;;3.88;2.20;;;;;;;30.54;37.14;96136.63;4952270;28;104909;-73
2023/10/13 13:14:08;;;;;;;3.80;2.25;;;;;;;31.16;36.78;96133.41;4951497;28;105474;-73
2023/10/13 13:16:38;;;;;;;3.72;2.10;;;;;;;30.59;34.27;96122.53;4952224;28;101873;-73
2023/10/13 13:19:11;;;;;;;3.60;1.63;;;;;;;31.20;33.54;96119.69;4970027;28;102620;-72
2023/10/13 13:21:41;;;;;;;3.53;2.35;;;;;;;31.31;36.15;96112.25;4951647;28;105231;-82
2023/10/13 13:24:13;;;;;;;5.55;2.20;;;;;;;31.08;36.79;96117.28;4952267;28;102074;-80
2023/10/13 13:26:43;;;;;;;5.03;2.30;;;;;;;31.32;35.44;96111.88;4954968;28;105956;-80
2023/10/13 13:29:10;;;;;;;6.20;2.30;;;;;;;31.45;36.45;96107.56;4952103;28;101863;-79
2023/10/13 13:31:43;;;;;;;4.63;2.30;;;;;;;30.56;38.33;96106.84;4952163;28;105085;-79
2023/10/13 13:34:14;;;;;;;9.93;2.72;;;;;;;31.22;37.26;96104.38;4951463;28;105164;-79
2023/10/13 13:36:52;;;;;;;5.28;2.83;;;;;;;29.86;37.67;96109.13;4969644;28;101904;-79
2023/10/13 13:39:28;;;;;;;4.18;2.25;;;;;;;29.25;39.16;96106.19;4951874;28;104015;-79
2023/10/13 13:41:58;;;;;;;4.88;2.63;;;;;;;30.09;37.76;96101.44;4954750;28;104448;-79
2023/10/13 13:44:35;;;;;;;7.78;2.40;;;;;;;30.45;36.23;96095.81;4972949;28;101755;-79
2023/10/13 13:47:05;;;;;;;7.65;2.63;;;;;;;31.35;37.75;96093.81;4955592;28;105879;-79
2023/10/13 13:49:39;;;;;;;5.72;2.28;;;;;;;31.40;36.43;96099.72;4958212;28;105824;-79
2023/10/13 13:52:09;;;;;;;7.90;2.20;;;;;;;30.12;37.84;96092.47;4973184;28;102513;-79